Time;durP1;ratioP1;P1;durP2;ratioP2;P2;SDS_P1;SDS_P2;PMS_P1;PMS_P2;Temp;Humidity;BMP_temperature;BMP_pressure;BME280_temperature;BME280_humidity;BME280_pressure;Samples;Min_cycle;Max_cycle;Signal;HPM_P1;HPM_P2
2022/05/26 00:01:09;;;;;;;1.52;0.90;;;;;;;;;;4982097;28;20101;-71
2022/05/26 00:03:38;;;;;;;1.67;1.02;;;;;;;;;;4983038;28;20060;-69
2022/05/26 00:06:06;;;;;;;3.58;0.98;;;;;;;;;;4985414;28;20120;-69
2022/05/26 00:08:33;;;;;;;2.00;0.82;;;;;;;;;;4981306;28;20042;-69
2022/05/26 00:10:58;;;;;;;2.38;0.80;;;;;;;;;;4983580;28;20045;-68
2022/05/26 00:13:25;;;;;;;1.80;1.00;;;;;;;;;;4982812;28;20529;-68
2022/05/26 00:15:50;;;;;;;2.92;0.90;;;;;;;;;;4986411;28;20038;-68
2022/05/26 00:18:16;;;;;;;4.95;1.25;;;;;;;;;;4986932;28;22310;-68
2022/05/26 00:20:41;;;;;;;3.70;1.00;;;;;;;;;;4985017;28;20044;-68
2022/05/26 00:23:08;;;;;;;1.25;0.80;;;;;;;;;;4981948;28;20048;-68
2022/05/26 00:25:34;;;;;;;1.48;0.80;;;;;;;;;;4985772;28;20042;-68
2022/05/26 00:27:59;;;;;;;3.08;0.80;;;;;;;;;;4983702;28;20065;-71
2022/05/26 00:30:24;;;;;;;1.77;0.70;;;;;;;;;;4984437;28;21627;-70
2022/05/26 00:32:50;;;;;;;2.13;0.85;;;;;;;;;;4984780;28;20029;-69
2022/05/26 00:35:16;;;;;;;1.83;0.80;;;;;;;;;;4981094;28;20123;-69
2022/05/26 00:37:42;;;;;;;5.28;1.10;;;;;;;;;;4983884;28;20038;-71
2022/05/26 00:40:09;;;;;;;3.50;0.82;;;;;;;;;;4980411;28;22466;-70
2022/05/26 00:42:35;;;;;;;2.95;0.90;;;;;;;;;;4984699;28;20065;-69
2022/05/26 00:45:00;;;;;;;1.58;0.80;;;;;;;;;;4984924;28;20413;-70
2022/05/26 00:47:32;;;;;;;2.08;0.63;;;;;;;;;;4985038;28;20045;-68
2022/05/26 00:50:26;;;;;;;2.15;0.60;;;;;;;;;;4984923;28;20073;-70
2022/05/26 00:53:11;;;;;;;2.60;0.93;;;;;;;;;;4986049;28;20056;-68
2022/05/26 00:55:45;;;;;;;0.98;0.73;;;;;;;;;;4983489;28;20912;-69
2022/05/26 00:58:18;;;;;;;1.02;0.65;;;;;;;;;;4982612;28;22006;-70
2022/05/26 01:00:45;;;;;;;2.42;0.93;;;;;;;;;;4985024;28;20053;-70
2022/05/26 01:03:11;;;;;;;2.75;0.70;;;;;;;;;;4985083;28;20037;-70
2022/05/26 01:05:45;;;;;;;1.20;0.80;;;;;;;;;;4985580;28;20037;-70
2022/05/26 01:08:27;;;;;;;1.95;0.90;;;;;;;;;;4984600;28;20068;-69
2022/05/26 01:10:53;;;;;;;0.90;0.70;;;;;;;;;;4984070;28;20069;-69
2022/05/26 01:13:20;;;;;;;1.23;0.60;;;;;;;;;;4984486;28;21707;-69
2022/05/26 01:15:54;;;;;;;2.53;0.63;;;;;;;;;;4984416;28;20562;-69
2022/05/26 01:18:48;;;;;;;1.10;0.60;;;;;;;;;;4980281;28;20030;-69
2022/05/26 01:21:20;;;;;;;0.90;0.47;;;;;;;;;;4982067;28;20036;-69
2022/05/26 01:24:21;;;;;;;1.70;0.50;;;;;;;;;;4979614;28;20196;-70
2022/05/26 01:26:55;;;;;;;1.08;0.50;;;;;;;;;;4956772;28;20042;-71
2022/05/26 01:29:58;;;;;;;0.90;0.70;;;;;;;;;;4983409;28;20791;-69
2022/05/26 01:32:44;;;;;;;1.25;0.60;;;;;;;;;;4983818;28;20232;-70
2022/05/26 01:35:16;;;;;;;1.88;0.60;;;;;;;;;;4984623;28;20049;-70
2022/05/26 01:38:21;;;;;;;2.78;0.90;;;;;;;;;;4984827;28;20754;-69
2022/05/26 01:40:57;;;;;;;1.23;0.50;;;;;;;;;;4968540;28;20039;-70
2022/05/26 01:43:41;;;;;;;1.75;0.73;;;;;;;;;;4981306;28;20401;-69
2022/05/26 01:46:28;;;;;;;0.95;0.50;;;;;;;;;;4982797;28;20040;-69
2022/05/26 01:49:14;;;;;;;1.35;0.60;;;;;;;;;;4982157;28;20049;-70
2022/05/26 01:51:55;;;;;;;3.20;0.80;;;;;;;;;;4984709;28;20965;-69
2022/05/26 01:54:31;;;;;;;2.30;0.73;;;;;;;;;;4981886;28;20104;-70
2022/05/26 01:57:22;;;;;;;0.60;0.60;;;;;;;;;;4983280;28;20036;-70
2022/05/26 01:59:59;;;;;;;2.28;0.65;;;;;;;;;;4975771;28;20080;-70
2022/05/26 02:02:36;;;;;;;1.60;0.73;;;;;;;;;;4982087;28;20588;-69
2022/05/26 02:05:07;;;;;;;3.90;1.33;;;;;;;;;;4982314;28;20049;-70
2022/05/26 02:07:47;;;;;;;2.92;0.80;;;;;;;;;;4982810;28;20054;-70
2022/05/26 02:10:28;;;;;;;4.80;0.90;;;;;;;;;;4983269;28;20049;-69
2022/05/26 02:13:02;;;;;;;0.88;0.60;;;;;;;;;;4983686;28;20052;-68
2022/05/26 02:15:36;;;;;;;2.33;0.57;;;;;;;;;;4983679;28;20551;-70
2022/05/26 02:18:24;;;;;;;0.82;0.50;;;;;;;;;;4983066;28;20057;-69
2022/05/26 02:20:57;;;;;;;0.70;0.55;;;;;;;;;;4984080;28;20065;-71
2022/05/26 02:23:32;;;;;;;1.05;0.50;;;;;;;;;;4982353;28;20477;-70
2022/05/26 02:26:00;;;;;;;3.75;0.70;;;;;;;;;;4981426;28;20777;-69
2022/05/26 02:28:25;;;;;;;2.30;0.70;;;;;;;;;;4980831;28;20053;-70
2022/05/26 02:30:52;;;;;;;1.75;0.65;;;;;;;;;;4980660;28;20988;-70
2022/05/26 02:33:18;;;;;;;0.40;0.40;;;;;;;;;;4982752;28;20026;-69
2022/05/26 02:35:48;;;;;;;1.80;0.90;;;;;;;;;;4983387;28;20490;-70
2022/05/26 02:38:22;;;;;;;1.67;0.60;;;;;;;;;;4981951;28;20061;-70
2022/05/26 02:40:49;;;;;;;2.08;0.50;;;;;;;;;;4983399;28;20567;-69
2022/05/26 02:43:30;;;;;;;1.20;0.43;;;;;;;;;;4981594;28;20498;-69
2022/05/26 02:46:14;;;;;;;1.35;0.52;;;;;;;;;;4982564;28;20034;-70
2022/05/26 02:48:49;;;;;;;0.68;0.50;;;;;;;;;;4982325;28;20166;-69
2022/05/26 02:51:39;;;;;;;1.05;0.50;;;;;;;;;;4982291;28;20045;-70
2022/05/26 02:54:16;;;;;;;2.00;0.50;;;;;;;;;;4981291;28;20030;-70
2022/05/26 02:56:54;;;;;;;4.32;0.52;;;;;;;;;;4982616;28;20115;-69
2022/05/26 02:59:35;;;;;;;0.65;0.60;;;;;;;;;;4982325;28;20038;-69
2022/05/26 03:02:28;;;;;;;2.03;0.93;;;;;;;;;;4981498;28;20092;-69
2022/05/26 03:05:15;;;;;;;1.30;0.77;;;;;;;;;;4976134;28;20042;-70
2022/05/26 03:07:44;;;;;;;1.63;0.52;;;;;;;;;;4981420;28;20048;-69
2022/05/26 03:10:11;;;;;;;3.75;0.95;;;;;;;;;;4983027;28;20037;-70
2022/05/26 03:12:37;;;;;;;1.30;0.68;;;;;;;;;;4982428;28;20050;-69
2022/05/26 03:15:05;;;;;;;1.92;0.70;;;;;;;;;;4983722;28;20036;-69
2022/05/26 03:17:31;;;;;;;1.30;0.68;;;;;;;;;;4981518;28;20072;-69
2022/05/26 03:19:56;;;;;;;2.20;0.88;;;;;;;;;;4982142;28;20124;-68
2022/05/26 03:22:22;;;;;;;2.38;0.70;;;;;;;;;;4980453;28;20456;-67
2022/05/26 03:24:48;;;;;;;4.50;0.80;;;;;;;;;;4977473;28;20049;-69
2022/05/26 03:27:13;;;;;;;1.67;0.75;;;;;;;;;;4981875;28;20568;-70
2022/05/26 03:29:39;;;;;;;3.17;0.80;;;;;;;;;;4981343;28;20113;-70
2022/05/26 03:32:05;;;;;;;1.50;0.77;;;;;;;;;;4980694;28;20044;-70
2022/05/26 03:42:44;;;;;;;2.83;0.50;;;;;;;;;;4981282;28;21859;-69
2022/05/26 03:45:11;;;;;;;2.55;0.60;;;;;;;;;;4980679;28;20033;-69
2022/05/26 03:47:38;;;;;;;2.72;0.60;;;;;;;;;;4985227;28;20119;-69
2022/05/26 03:50:04;;;;;;;1.80;0.60;;;;;;;;;;4984408;28;20588;-70
2022/05/26 03:52:29;;;;;;;3.03;0.60;;;;;;;;;;4985380;28;20057;-70
2022/05/26 03:54:55;;;;;;;1.80;0.80;;;;;;;;;;4983444;28;20165;-70
2022/05/26 03:57:24;;;;;;;1.90;0.70;;;;;;;;;;4982018;28;23105;-70
2022/05/26 03:59:50;;;;;;;3.00;0.50;;;;;;;;;;4984642;28;20035;-70
2022/05/26 04:02:16;;;;;;;0.57;0.50;;;;;;;;;;4984241;28;20045;-68
2022/05/26 04:04:41;;;;;;;2.38;0.50;;;;;;;;;;4984229;28;20063;-70
2022/05/26 04:07:06;;;;;;;1.80;0.55;;;;;;;;;;4985389;28;20041;-68
2022/05/26 04:09:32;;;;;;;3.53;0.80;;;;;;;;;;4984194;28;20060;-67
2022/05/26 04:11:57;;;;;;;1.15;0.70;;;;;;;;;;4984607;28;20037;-69
2022/05/26 04:14:22;;;;;;;1.50;0.47;;;;;;;;;;4984848;28;20049;-70
2022/05/26 04:16:48;;;;;;;2.47;0.70;;;;;;;;;;4983038;28;20042;-70
2022/05/26 04:19:13;;;;;;;2.03;0.70;;;;;;;;;;4982701;28;20038;-69
2022/05/26 04:22:14;;;;;;;1.00;0.52;;;;;;;;;;4984358;28;20797;-70
2022/05/26 04:24:24;;;;;;;1.20;0.40;;;;;;;;;;4982773;28;20061;-69
2022/05/26 04:26:49;;;;;;;1.38;0.80;;;;;;;;;;4983288;28;20021;-69
2022/05/26 04:29:15;;;;;;;3.10;0.65;;;;;;;;;;4983060;28;20766;-69
2022/05/26 04:31:40;;;;;;;6.32;0.80;;;;;;;;;;4983047;28;20041;-70
2022/05/26 04:34:06;;;;;;;3.40;0.80;;;;;;;;;;4983358;28;20913;-69
2022/05/26 04:36:31;;;;;;;1.42;0.95;;;;;;;;;;4984294;28;20037;-68
2022/05/26 04:38:56;;;;;;;4.15;0.50;;;;;;;;;;4983172;28;20129;-68
2022/05/26 04:41:22;;;;;;;1.02;0.45;;;;;;;;;;4981249;28;21769;-68
2022/05/26 04:43:47;;;;;;;3.03;0.70;;;;;;;;;;4983855;28;20038;-70
2022/05/26 04:46:13;;;;;;;1.50;0.70;;;;;;;;;;4982349;28;20092;-71
2022/05/26 04:48:38;;;;;;;1.15;0.55;;;;;;;;;;4982980;28;20084;-70
2022/05/26 04:51:03;;;;;;;1.48;0.65;;;;;;;;;;4983883;28;20029;-69
2022/05/26 04:53:32;;;;;;;1.95;0.57;;;;;;;;;;4981667;28;20041;-69
2022/05/26 04:55:57;;;;;;;0.95;0.40;;;;;;;;;;4984648;28;20042;-68
2022/05/26 04:58:22;;;;;;;1.60;0.60;;;;;;;;;;4982803;28;20123;-68
2022/05/26 05:00:48;;;;;;;2.28;0.60;;;;;;;;;;4983840;28;20176;-69
2022/05/26 05:03:13;;;;;;;2.70;0.68;;;;;;;;;;4982809;28;20072;-70
2022/05/26 05:05:39;;;;;;;2.03;0.70;;;;;;;;;;4984871;28;20525;-69
2022/05/26 05:08:04;;;;;;;0.45;0.30;;;;;;;;;;4982827;28;20054;-69
2022/05/26 05:10:30;;;;;;;1.15;0.50;;;;;;;;;;4981514;28;20038;-69
2022/05/26 05:12:56;;;;;;;2.15;0.50;;;;;;;;;;4983991;28;20501;-69
2022/05/26 05:15:28;;;;;;;1.27;0.60;;;;;;;;;;4981972;28;20571;-69
2022/05/26 05:17:53;;;;;;;0.70;0.47;;;;;;;;;;4983141;28;20112;-69
2022/05/26 05:20:19;;;;;;;1.55;0.50;;;;;;;;;;4982941;28;20620;-69
2022/05/26 05:22:51;;;;;;;3.97;0.60;;;;;;;;;;4982421;28;20188;-69
2022/05/26 05:25:25;;;;;;;1.00;0.60;;;;;;;;;;4982649;28;20684;-69
2022/05/26 05:27:56;;;;;;;2.97;1.15;;;;;;;;;;4981793;28;20301;-69
2022/05/26 05:30:36;;;;;;;0.85;0.47;;;;;;;;;;4983886;28;20030;-69
2022/05/26 05:33:06;;;;;;;2.00;0.60;;;;;;;;;;4984539;28;20375;-69
2022/05/26 05:35:38;;;;;;;4.78;0.70;;;;;;;;;;4984039;28;20073;-69
2022/05/26 05:38:04;;;;;;;0.80;0.47;;;;;;;;;;4982112;28;20042;-69
2022/05/26 05:40:30;;;;;;;3.08;0.50;;;;;;;;;;4981594;28;20046;-68
2022/05/26 05:42:55;;;;;;;0.60;0.30;;;;;;;;;;4981132;28;20044;-69
2022/05/26 05:45:21;;;;;;;1.83;0.63;;;;;;;;;;4982540;28;20046;-69
2022/05/26 05:47:46;;;;;;;1.13;0.70;;;;;;;;;;4982154;28;20032;-68
2022/05/26 05:50:12;;;;;;;2.70;0.60;;;;;;;;;;4982431;28;20050;-68
2022/05/26 05:52:37;;;;;;;4.53;0.70;;;;;;;;;;4981139;28;20042;-73
2022/05/26 05:55:04;;;;;;;3.63;0.45;;;;;;;;;;4980868;28;20385;-69
2022/05/26 05:57:30;;;;;;;2.80;0.80;;;;;;;;;;4981141;28;20096;-69
2022/05/26 05:59:55;;;;;;;3.65;0.52;;;;;;;;;;4980570;28;20026;-69
2022/05/26 06:02:21;;;;;;;4.43;0.55;;;;;;;;;;4980803;28;20034;-69
2022/05/26 06:04:46;;;;;;;1.75;0.50;;;;;;;;;;4982611;28;20092;-69
2022/05/26 06:07:17;;;;;;;0.73;0.30;;;;;;;;;;4977508;28;20128;-69
2022/05/26 06:09:43;;;;;;;0.95;0.40;;;;;;;;;;4981411;28;20042;-69
2022/05/26 06:12:09;;;;;;;0.63;0.30;;;;;;;;;;4981693;28;20041;-68
2022/05/26 06:14:35;;;;;;;3.05;0.40;;;;;;;;;;4982969;28;20536;-69
2022/05/26 06:17:00;;;;;;;1.42;0.45;;;;;;;;;;4980673;28;20038;-69
2022/05/26 06:19:26;;;;;;;1.05;0.43;;;;;;;;;;4978982;28;20749;-69
2022/05/26 06:21:52;;;;;;;1.60;0.43;;;;;;;;;;4981536;28;20052;-69
2022/05/26 06:24:23;;;;;;;1.20;0.38;;;;;;;;;;4982221;28;20034;-68
2022/05/26 06:26:49;;;;;;;1.00;0.40;;;;;;;;;;4982200;28;20513;-69
2022/05/26 06:37:30;;;;;;;1.45;0.40;;;;;;;;;;4981946;28;20051;-69
2022/05/26 06:39:56;;;;;;;3.03;0.52;;;;;;;;;;4980658;28;20158;-68
2022/05/26 06:42:24;;;;;;;1.27;0.45;;;;;;;;;;4981693;28;20101;-69
2022/05/26 06:44:50;;;;;;;1.30;0.60;;;;;;;;;;4979141;28;20409;-69
2022/05/26 06:47:18;;;;;;;2.53;0.70;;;;;;;;;;4977915;28;20501;-69
2022/05/26 06:49:44;;;;;;;1.60;0.40;;;;;;;;;;4980092;28;20317;-69
2022/05/26 06:52:12;;;;;;;5.65;0.98;;;;;;;;;;4979129;28;20053;-70
2022/05/26 06:54:41;;;;;;;3.58;0.60;;;;;;;;;;4979616;28;20053;-69
2022/05/26 06:57:08;;;;;;;2.35;0.77;;;;;;;;;;4980808;28;20080;-68
2022/05/26 06:59:35;;;;;;;3.35;0.50;;;;;;;;;;4977589;28;20448;-68
2022/05/26 07:02:01;;;;;;;3.65;0.80;;;;;;;;;;4978692;28;20519;-68
2022/05/26 07:04:27;;;;;;;4.63;0.40;;;;;;;;;;4980661;28;20038;-69
2022/05/26 07:06:53;;;;;;;1.33;0.50;;;;;;;;;;4981470;28;20719;-69
2022/05/26 07:09:20;;;;;;;3.38;0.63;;;;;;;;;;4981110;28;20099;-69
2022/05/26 07:11:46;;;;;;;2.75;0.50;;;;;;;;;;4979335;28;20959;-68
2022/05/26 07:14:13;;;;;;;4.13;0.77;;;;;;;;;;4979703;28;20096;-68
2022/05/26 07:16:39;;;;;;;1.38;0.45;;;;;;;;;;4982366;28;20045;-69
2022/05/26 07:19:04;;;;;;;2.13;0.55;;;;;;;;;;4981773;28;20092;-69
2022/05/26 07:21:30;;;;;;;1.40;0.57;;;;;;;;;;4979162;28;20429;-69
2022/05/26 07:23:55;;;;;;;2.50;0.57;;;;;;;;;;4982181;28;20371;-69
2022/05/26 07:26:21;;;;;;;2.05;0.45;;;;;;;;;;4979117;28;20037;-69
2022/05/26 07:28:46;;;;;;;2.97;0.60;;;;;;;;;;4979980;28;20604;-69
2022/05/26 07:31:13;;;;;;;4.82;1.20;;;;;;;;;;4978756;28;20480;-70
2022/05/26 07:33:39;;;;;;;2.38;0.80;;;;;;;;;;4980861;28;20050;-69
2022/05/26 07:36:06;;;;;;;1.13;0.68;;;;;;;;;;4982199;28;20117;-69
2022/05/26 07:41:23;;;;;;;2.10;0.50;;;;;;;;;;4981659;28;20064;-69
2022/05/26 07:43:52;;;;;;;1.77;0.60;;;;;;;;;;4981110;28;20046;-69
2022/05/26 07:46:20;;;;;;;2.92;0.70;;;;;;;;;;4981544;28;20037;-69
2022/05/26 07:48:46;;;;;;;1.10;0.40;;;;;;;;;;4980655;28;20038;-70
2022/05/26 07:51:12;;;;;;;2.90;0.80;;;;;;;;;;4980275;28;20068;-69
2022/05/26 07:53:37;;;;;;;0.82;0.40;;;;;;;;;;4979427;28;20050;-70
2022/05/26 07:56:03;;;;;;;1.60;0.50;;;;;;;;;;4981083;28;20046;-69
2022/05/26 07:58:29;;;;;;;3.67;0.80;;;;;;;;;;4981007;28;20093;-68
2022/05/26 08:00:55;;;;;;;3.45;0.55;;;;;;;;;;4990627;28;20682;-69
2022/05/26 08:03:21;;;;;;;2.25;0.45;;;;;;;;;;4981178;28;20040;-69
2022/05/26 08:05:47;;;;;;;2.70;0.77;;;;;;;;;;4982100;28;20033;-67
2022/05/26 08:08:14;;;;;;;2.95;0.60;;;;;;;;;;4980473;28;20042;-70
2022/05/26 08:10:40;;;;;;;1.58;0.60;;;;;;;;;;4982053;28;20038;-67
2022/05/26 08:13:06;;;;;;;7.90;0.70;;;;;;;;;;4980595;28;20061;-68
2022/05/26 08:15:32;;;;;;;3.42;0.70;;;;;;;;;;4980818;28;20026;-68
2022/05/26 08:17:58;;;;;;;2.00;0.60;;;;;;;;;;4978851;28;20041;-68
2022/05/26 08:20:24;;;;;;;1.20;0.50;;;;;;;;;;4980112;28;20038;-68
2022/05/26 08:22:49;;;;;;;4.45;0.60;;;;;;;;;;4980878;28;20057;-70
2022/05/26 08:25:14;;;;;;;1.35;0.68;;;;;;;;;;4981001;28;20045;-69
2022/05/26 08:27:40;;;;;;;0.52;0.50;;;;;;;;;;4979836;28;20520;-69
2022/05/26 08:30:07;;;;;;;0.93;0.40;;;;;;;;;;4981825;28;21012;-69
2022/05/26 08:32:32;;;;;;;2.67;0.60;;;;;;;;;;4983016;28;20524;-68
2022/05/26 08:35:03;;;;;;;1.65;0.50;;;;;;;;;;4984212;28;20067;-71
2022/05/26 08:37:28;;;;;;;3.53;0.60;;;;;;;;;;4984787;28;20041;-69
2022/05/26 08:39:54;;;;;;;2.20;0.63;;;;;;;;;;4984270;28;20046;-69
2022/05/26 08:42:31;;;;;;;1.88;0.60;;;;;;;;;;4982943;28;20034;-70
2022/05/26 08:45:12;;;;;;;2.40;0.73;;;;;;;;;;4985350;28;20603;-69
2022/05/26 08:47:44;;;;;;;3.55;0.70;;;;;;;;;;4982442;28;20040;-69
2022/05/26 08:50:15;;;;;;;1.58;0.70;;;;;;;;;;4982936;28;20026;-69
2022/05/26 08:52:48;;;;;;;1.15;0.60;;;;;;;;;;4983361;28;20061;-68
2022/05/26 08:55:21;;;;;;;1.58;0.57;;;;;;;;;;4984750;28;20092;-69
2022/05/26 08:57:51;;;;;;;1.38;0.60;;;;;;;;;;4984822;28;20748;-69
2022/05/26 09:00:20;;;;;;;3.20;0.50;;;;;;;;;;4984259;28;20108;-67
2022/05/26 09:02:48;;;;;;;1.65;0.73;;;;;;;;;;5000482;28;20600;-69
2022/05/26 09:05:19;;;;;;;2.22;0.75;;;;;;;;;;4983564;28;20150;-69
2022/05/26 09:13:41;;;;;;;0.98;0.50;;;;;;;;;;4980771;28;20581;-69
2022/05/26 09:16:06;;;;;;;1.95;0.60;;;;;;;;;;4985313;28;20057;-69
2022/05/26 09:18:32;;;;;;;1.67;0.70;;;;;;;;;;4984465;28;20034;-69
2022/05/26 09:21:21;;;;;;;1.20;0.40;;;;;;;;;;4985037;28;21029;-68
2022/05/26 09:23:47;;;;;;;2.40;0.90;;;;;;;;;;4983076;28;20080;-69
2022/05/26 09:26:17;;;;;;;1.45;0.60;;;;;;;;;;4984423;28;20104;-68
2022/05/26 09:28:49;;;;;;;2.17;0.55;;;;;;;;;;4981907;28;20053;-69
2022/05/26 09:31:29;;;;;;;1.23;0.60;;;;;;;;;;4981841;28;20042;-69
2022/05/26 09:34:03;;;;;;;2.65;0.50;;;;;;;;;;4982520;28;20397;-70
2022/05/26 09:36:37;;;;;;;2.25;0.60;;;;;;;;;;4985928;28;20037;-69
2022/05/26 09:39:03;;;;;;;1.60;0.60;;;;;;;;;;4984614;28;20109;-69
2022/05/26 09:41:41;;;;;;;1.58;0.52;;;;;;;;;;4984389;28;20216;-70
2022/05/26 09:44:30;;;;;;;2.10;0.60;;;;;;;;;;4983847;28;20600;-68
2022/05/26 09:46:58;;;;;;;3.13;0.85;;;;;;;;;;4984683;28;20045;-68
2022/05/26 09:49:31;;;;;;;1.52;0.63;;;;;;;;;;4984679;28;20042;-69
2022/05/26 09:52:18;;;;;;;1.25;0.57;;;;;;;;;;4982470;28;20083;-69
2022/05/26 09:54:45;;;;;;;1.48;0.50;;;;;;;;;;4983607;28;20774;-69
2022/05/26 09:57:16;;;;;;;3.80;0.60;;;;;;;;;;4986310;28;20053;-68
2022/05/26 09:59:42;;;;;;;2.53;0.60;;;;;;;;;;4986960;28;20077;-68
2022/05/26 10:02:22;;;;;;;1.40;0.45;;;;;;;;;;4984521;28;20041;-68
2022/05/26 10:04:50;;;;;;;1.33;0.45;;;;;;;;;;4985906;28;20107;-68
2022/05/26 10:07:22;;;;;;;2.70;0.60;;;;;;;;;;4984873;28;20042;-69
2022/05/26 10:10:10;;;;;;;1.55;0.50;;;;;;;;;;4982600;28;20116;-69
2022/05/26 10:12:51;;;;;;;2.53;0.80;;;;;;;;;;4985277;28;20053;-68
2022/05/26 10:15:35;;;;;;;6.47;0.82;;;;;;;;;;4984197;28;20485;-69
2022/05/26 10:18:19;;;;;;;1.08;0.47;;;;;;;;;;4982331;28;20034;-69
2022/05/26 10:21:19;;;;;;;2.80;0.70;;;;;;;;;;4983228;28;20123;-69
2022/05/26 10:24:03;;;;;;;1.00;0.50;;;;;;;;;;4949951;28;20091;-69
2022/05/26 10:26:47;;;;;;;1.50;0.60;;;;;;;;;;4982899;28;20046;-69
2022/05/26 10:29:46;;;;;;;2.78;0.90;;;;;;;;;;4983896;28;20567;-69
2022/05/26 10:32:15;;;;;;;1.98;0.65;;;;;;;;;;4983289;28;20046;-69
2022/05/26 10:35:00;;;;;;;0.40;0.40;;;;;;;;;;4984566;28;20061;-70
2022/05/26 10:37:32;;;;;;;1.67;0.60;;;;;;;;;;4984693;28;20053;-68
2022/05/26 10:40:21;;;;;;;2.67;0.65;;;;;;;;;;4983085;28;21027;-68
2022/05/26 10:43:25;;;;;;;2.13;0.60;;;;;;;;;;4983674;28;21555;-68
2022/05/26 10:45:52;;;;;;;3.03;0.70;;;;;;;;;;4943561;28;20486;-70
2022/05/26 10:48:51;;;;;;;1.33;0.60;;;;;;;;;;4983739;28;20045;-70
2022/05/26 10:51:25;;;;;;;2.15;0.65;;;;;;;;;;4985944;28;20038;-67
2022/05/26 10:53:54;;;;;;;1.58;0.50;;;;;;;;;;4987404;28;20052;-69
2022/05/26 10:56:59;;;;;;;3.22;0.70;;;;;;;;;;4984500;28;20052;-70
2022/05/26 10:59:27;;;;;;;0.95;0.60;;;;;;;;;;4974843;28;20689;-68
2022/05/26 11:02:05;;;;;;;1.17;0.70;;;;;;;;;;4984979;28;20132;-69
2022/05/26 11:04:50;;;;;;;0.85;0.60;;;;;;;;;;4986552;28;20068;-68
2022/05/26 11:07:32;;;;;;;1.83;0.70;;;;;;;;;;4985194;28;20045;-68
2022/05/26 11:10:09;;;;;;;1.65;0.70;;;;;;;;;;4986727;28;20050;-70
2022/05/26 11:12:42;;;;;;;1.55;0.60;;;;;;;;;;4987614;28;20042;-69
2022/05/26 11:18:25;;;;;;;1.80;0.93;;;;;;;;;;4982816;28;20061;-66
2022/05/26 11:20:54;;;;;;;1.15;0.60;;;;;;;;;;4981595;28;20444;-67
2022/05/26 11:23:31;;;;;;;2.78;0.80;;;;;;;;;;4980659;28;20073;-67
2022/05/26 11:26:35;;;;;;;2.33;0.85;;;;;;;;;;4994429;28;20056;-69
2022/05/26 11:29:15;;;;;;;1.42;0.70;;;;;;;;;;4981048;28;20042;-68
2022/05/26 11:37:34;;;;;;;2.22;0.68;;;;;;;;;;4979856;28;20091;-66
2022/05/26 11:40:13;;;;;;;1.58;0.70;;;;;;;;;;4963280;28;20052;-67
2022/05/26 11:42:48;;;;;;;1.77;0.70;;;;;;;;;;4979829;28;20169;-66
2022/05/26 11:45:13;;;;;;;1.83;0.75;;;;;;;;;;4982948;28;20718;-70
2022/05/26 11:48:18;;;;;;;1.40;1.00;;;;;;;;;;4984449;28;20038;-69
2022/05/26 11:50:46;;;;;;;2.72;0.55;;;;;;;;;;4961028;28;20380;-70
2022/05/26 11:53:30;;;;;;;2.50;0.73;;;;;;;;;;4983957;28;20148;-69
2022/05/26 11:55:58;;;;;;;2.72;0.82;;;;;;;;;;4982640;28;20037;-69
2022/05/26 11:58:41;;;;;;;2.22;0.88;;;;;;;;;;4982146;28;20061;-69
2022/05/26 12:01:22;;;;;;;2.70;0.60;;;;;;;;;;4980290;28;20045;-69
2022/05/26 12:03:49;;;;;;;1.80;0.50;;;;;;;;;;4980888;28;20044;-69
2022/05/26 12:06:29;;;;;;;1.50;0.70;;;;;;;;;;4980093;28;20030;-68
2022/05/26 12:08:55;;;;;;;1.48;0.70;;;;;;;;;;4982653;28;21252;-69
2022/05/26 12:11:59;;;;;;;3.00;0.93;;;;;;;;;;4984176;28;20050;-68
2022/05/26 12:14:40;;;;;;;2.38;0.80;;;;;;;;;;4984937;28;20400;-69
2022/05/26 12:17:34;;;;;;;2.70;0.90;;;;;;;;;;4983450;28;20077;-69
2022/05/26 12:20:09;;;;;;;2.17;0.80;;;;;;;;;;4983501;28;20033;-68
2022/05/26 12:22:47;;;;;;;3.20;0.90;;;;;;;;;;4986859;28;20064;-68
2022/05/26 12:25:34;;;;;;;1.98;0.70;;;;;;;;;;4986002;28;20068;-68
2022/05/26 12:28:04;;;;;;;1.33;0.60;;;;;;;;;;4986592;28;20107;-68
2022/05/26 12:30:45;;;;;;;2.55;0.90;;;;;;;;;;4984737;28;20028;-69
2022/05/26 12:33:19;;;;;;;2.42;0.70;;;;;;;;;;4987244;28;20321;-68
2022/05/26 12:36:16;;;;;;;2.95;0.75;;;;;;;;;;4986172;28;20089;-69
2022/05/26 12:38:59;;;;;;;1.35;0.52;;;;;;;;;;4984978;28;20567;-69
2022/05/26 12:41:34;;;;;;;1.90;0.77;;;;;;;;;;4984563;28;20409;-69
2022/05/26 12:44:03;;;;;;;2.28;1.00;;;;;;;;;;4984040;28;20088;-68
2022/05/26 12:46:41;;;;;;;3.58;0.77;;;;;;;;;;4984530;28;20073;-68
2022/05/26 12:49:30;;;;;;;2.45;0.90;;;;;;;;;;4983884;28;20149;-69
2022/05/26 12:52:09;;;;;;;2.45;0.65;;;;;;;;;;4982624;28;20046;-72
2022/05/26 12:54:45;;;;;;;2.22;0.70;;;;;;;;;;4983364;28;20405;-69
2022/05/26 12:57:18;;;;;;;2.28;1.00;;;;;;;;;;4987585;28;20041;-69
2022/05/26 12:59:43;;;;;;;2.72;0.82;;;;;;;;;;4985223;28;20096;-69
2022/05/26 13:02:13;;;;;;;2.78;0.85;;;;;;;;;;4981064;28;20815;-69
2022/05/26 13:04:38;;;;;;;1.30;0.80;;;;;;;;;;4983880;28;20038;-69
2022/05/26 13:07:06;;;;;;;1.95;0.90;;;;;;;;;;4986555;28;20049;-68
2022/05/26 13:09:53;;;;;;;1.73;0.90;;;;;;;;;;4986059;28;20049;-67
2022/05/26 13:12:23;;;;;;;5.30;1.00;;;;;;;;;;4985749;28;20104;-69
2022/05/26 13:14:52;;;;;;;5.88;1.00;;;;;;;;;;4986258;28;21645;-69
2022/05/26 13:17:26;;;;;;;1.83;0.93;;;;;;;;;;4982924;28;20052;-69
2022/05/26 13:19:56;;;;;;;2.55;0.63;;;;;;;;;;4985937;28;21515;-66
2022/05/26 13:22:28;;;;;;;2.22;0.90;;;;;;;;;;4983075;28;20044;-67
2022/05/26 13:25:25;;;;;;;3.58;1.00;;;;;;;;;;4988631;28;20046;-66
2022/05/26 13:28:00;;;;;;;3.17;1.00;;;;;;;;;;4979368;28;20189;-68
2022/05/26 13:33:40;;;;;;;2.92;1.02;;;;;;;;;;4983215;28;20129;-67
2022/05/26 13:36:07;;;;;;;3.70;1.00;;;;;;;;;;4980847;28;20041;-66
2022/05/26 13:38:59;;;;;;;2.45;0.90;;;;;;;;;;4971348;28;20172;-67
2022/05/26 13:41:27;;;;;;;4.68;1.15;;;;;;;;;;4981117;28;20038;-66
2022/05/26 13:43:55;;;;;;;2.13;1.02;;;;;;;;;;4991485;28;20077;-68
2022/05/26 13:46:43;;;;;;;5.63;1.35;;;;;;;;;;4981863;28;20060;-67
2022/05/26 13:49:31;;;;;;;2.85;1.20;;;;;;;;;;4971995;28;21924;-67
2022/05/26 13:51:59;;;;;;;4.03;1.13;;;;;;;;;;4978776;28;20045;-69
2022/05/26 13:54:41;;;;;;;3.92;0.90;;;;;;;;;;4970129;28;20037;-69
2022/05/26 13:57:19;;;;;;;3.33;0.88;;;;;;;;;;4976432;28;20665;-69
2022/05/26 14:00:06;;;;;;;2.30;1.00;;;;;;;;;;4982678;28;20115;-69
2022/05/26 14:02:36;;;;;;;3.22;0.98;;;;;;;;;;4984399;28;20039;-67
2022/05/26 14:05:14;;;;;;;3.40;1.00;;;;;;;;;;4983286;28;20110;-69
2022/05/26 14:07:42;;;;;;;3.00;1.10;;;;;;;;;;4983429;28;20479;-65
2022/05/26 14:10:19;;;;;;;2.42;0.80;;;;;;;;;;4986644;28;20384;-65
2022/05/26 14:13:07;;;;;;;3.17;1.13;;;;;;;;;;4992344;28;20045;-65
2022/05/26 14:15:49;;;;;;;3.90;1.38;;;;;;;;;;4972760;28;20058;-67
2022/05/26 14:18:36;;;;;;;6.53;2.25;;;;;;;;;;4978966;28;20111;-67
2022/05/26 14:21:18;;;;;;;2.67;0.90;;;;;;;;;;4972710;28;20033;-66
2022/05/26 14:24:00;;;;;;;3.38;1.27;;;;;;;;;;4958244;28;20658;-66
2022/05/26 14:26:34;;;;;;;3.40;1.02;;;;;;;;;;4967788;28;20045;-66
2022/05/26 14:29:02;;;;;;;7.07;2.65;;;;;;;;;;4980457;28;20112;-69
2022/05/26 14:31:29;;;;;;;3.13;1.50;;;;;;;;;;4980224;28;20807;-68
2022/05/26 14:34:21;;;;;;;2.33;1.00;;;;;;;;;;4983910;28;20042;-69
2022/05/26 14:36:47;;;;;;;2.10;1.05;;;;;;;;;;4982290;28;20468;-69
2022/05/26 14:39:12;;;;;;;3.80;1.10;;;;;;;;;;4983709;28;20037;-67
2022/05/26 14:41:38;;;;;;;4.25;0.88;;;;;;;;;;4983031;28;20052;-66
2022/05/26 14:44:06;;;;;;;4.43;1.20;;;;;;;;;;4982899;28;20446;-69
2022/05/26 14:46:32;;;;;;;3.92;1.33;;;;;;;;;;4984655;28;20155;-68
2022/05/26 14:48:58;;;;;;;5.80;1.05;;;;;;;;;;4977610;28;20569;-69
2022/05/26 14:51:28;;;;;;;4.50;1.10;;;;;;;;;;4981026;28;20140;-68
2022/05/26 14:56:39;;;;;;;3.83;1.20;;;;;;;;;;4979486;28;20049;-68
2022/05/26 14:59:05;;;;;;;4.97;1.15;;;;;;;;;;4981148;28;20053;-68
2022/05/26 15:01:30;;;;;;;2.17;1.08;;;;;;;;;;4984137;28;20072;-68
2022/05/26 15:03:55;;;;;;;2.30;1.20;;;;;;;;;;4983412;28;20157;-69
2022/05/26 15:06:21;;;;;;;2.88;1.30;;;;;;;;;;4979855;28;20115;-69
2022/05/26 15:08:46;;;;;;;4.93;1.40;;;;;;;;;;4980768;28;20110;-68
2022/05/26 15:11:15;;;;;;;3.22;1.17;;;;;;;;;;4981464;28;20057;-69
2022/05/26 15:13:41;;;;;;;2.17;1.05;;;;;;;;;;4985246;28;20581;-67
2022/05/26 15:16:09;;;;;;;3.67;0.90;;;;;;;;;;4984261;28;20029;-67
2022/05/26 15:18:35;;;;;;;2.13;0.90;;;;;;;;;;4982064;28;20180;-66
2022/05/26 15:21:01;;;;;;;2.85;1.08;;;;;;;;;;4982467;28;20046;-69
2022/05/26 15:23:26;;;;;;;3.95;1.20;;;;;;;;;;4981357;28;20132;-68
2022/05/26 15:28:42;;;;;;;3.05;1.08;;;;;;;;;;4982839;28;20092;-66
2022/05/26 15:31:08;;;;;;;1.63;0.93;;;;;;;;;;4981714;28;21156;-67
2022/05/26 15:33:34;;;;;;;3.03;1.30;;;;;;;;;;4981974;28;20037;-66
2022/05/26 15:35:59;;;;;;;2.22;1.17;;;;;;;;;;4982183;28;20042;-66
2022/05/26 15:38:32;;;;;;;2.85;1.27;;;;;;;;;;4981219;28;20505;-66
2022/05/26 15:40:57;;;;;;;2.90;1.10;;;;;;;;;;4984311;28;20022;-67
2022/05/26 15:43:23;;;;;;;1.85;0.95;;;;;;;;;;4990280;28;20120;-67
2022/05/26 15:45:48;;;;;;;2.92;0.90;;;;;;;;;;4989724;28;20072;-67
2022/05/26 15:48:14;;;;;;;3.75;1.08;;;;;;;;;;4991326;28;20137;-69
2022/05/26 15:50:39;;;;;;;3.30;1.13;;;;;;;;;;4991316;28;20056;-69
2022/05/26 15:53:05;;;;;;;3.85;1.10;;;;;;;;;;4990428;28;20120;-68
2022/05/26 15:55:31;;;;;;;3.95;1.42;;;;;;;;;;4990714;28;20428;-67